Montgomery County Airpark

KGAI · 马里兰州, 美国

罗盘
风向 的 Montgomery County Airpark 14/32
风: 0 kt, 0 beaufort


改变
0 ft 2.000 4.000 6.000 8.000 10.000
Cloud Cloud
FEW 6.500
METAR KGAI 310656Z AUTO 00000KT 10SM FEW065 07/05 A3005 RMK AO2 SLP192 T00670050

METAR Montgomery County Airpark - KGAI/GAI

Montgomery County Airpark是,美国中的小机场。 该机场有一条跑道: 14/32. 该领域的国际民航组织标志是KGAI 它的国际航空运输协会代码是GAI.

这份报告是针对2023年1月31日 01:56, 当地时间在Montgomery County Airpark进行的。

机场观察

可变方向的风很小或没有风。

可见度为10 mi。

有几云在6.500 ft的高度。 没有观察到天花板。

温度和风寒是7 °C。 露点为5 °C,相对湿度为87%。 海平面上的气压为30,05 inHg (QNH)。

白天

今天,太阳从07:16升起,在17:27降落。 这适用于Montgomery County Airpark,世界夏令时可能有所不同。 当地时间与世界标准时间之间的时差为-5 小时。 当前,没有夏令时有效。

公司介绍

我们没有关于这个机场的公司信息。

体会

到Vliegles.nl去找飞行课程,跳伞和其他飞行体验。 浏览页面,了解Montgomery County Airpark附近所有可用的活动。 你也可以使用搜索功能来寻找你所在地附近的特定飞行课程、跳伞或其他飞行体验。

跑道

Id 标题 侧风 逆风 侧风 %
14/32 127°-307°

逆风成分最大的方向会被突出显示,并用于横风计算。 这并不一定意味着这个方向在使用。

乌云

6.500 ft FEW 几云

温度 & 天气

温度 6,7 °C
露点 5,0 °C
相对湿度 87%
Kp-index 2 (0-9)

评论

AO2自动气象站,可确定降水类型
SLP192海平面压力为30,10 inHg (30,10 inHg)
T00670050温度为6,7 °C (44,1 °F),露点为5,0 °C (41,0 °F)

白天

日出
07:16 (5:04)
中午
12:22
日落
17:27

小工具

你想在你的网站上有一个关于Montgomery County Airpark的当前航空天气(METAR)的小部件吗?

显示HTML代码

我们和第三方通过cookies跟踪您在我们网站上的互联网行为。如果你继续,我们认为你同意我们的饼干政策